Brenham, TX

5:16 PM CDT on May 27, 2015 (GMT -0500)
Brenham | | Change Station
CLOSE
Current Station
Airport
Location: Brenham,
Elevation: 308 ft
Nearby Weather Stations

Elev 308 ft 30.22 °N, 96.37 °W | Updated 21 minutes ago

Clear
Clear
86 °F
Feels Like 93 °F
N
10
Wind Variable Wind from South

Today
High -- | Low -- °F
--% Chance of Precip.
Yesterday
High -- | Low -- °F
Precip. -- in
6:25 AM 8:19 PM
Waxing Gibbous, 70% visible
Pressure 30.03 in
Visibility 10.0 miles
Clouds Clear
Heat Index 93 °F
Dew Point 72 °F
Humidity 62%
Rainfall 1.65 in
Snow Depth Not available.
UV 5 out of 12
Pollen 4.90 out of 12
Air Quality Not available.
Flu Activity Sporadic
METAR K11R 272155Z AUTO 17009KT 10SM CLR 30/22 A3003 RMK AO2 T03020223

More Conditions Fewer Conditions

Pressure 30.03 in
Visibility 10.0 miles
Clouds Clear
Heat Index 93 °F
Dew Point 72 °F
Humidity 62%
Rainfall 1.65 in
Snow Depth Not available.
UV 5 out of 12
Pollen 4.90 out of 12
Air Quality Not available.
Flu Activity Sporadic
METAR K11R 272155Z AUTO 17009KT 10SM CLR 30/22 A3003 RMK AO2 T03020223

More Conditions Fewer Conditions

10-Day Weather Forecast

Almanac

Astronomy

May. 27, 2015 Rise Set
Actual Time
Civil Twilight
Nautical Twilight
Astronomical Twilight
Moon
Length of Visible Light
Length of Day
Tomorrow will be .
, % of the Moon is Illuminated

Today's Extremes

State Highs State Lows

Community

WunderPhotos

Upload Photos

1,824,809 photos uploaded!

WunderBlogs® & News

Nearby

Air Quality

  Air Quality AQ Index Pollutant
Not available.

Snow Depth

Station Depth Elevation

Earthquake Activity

City Distance Mag. Time & Date
Minimum magnitude displayed is 2.5.

Coastal Water Temperatures

Place Temperature

Stations

Nearby Weather Stations

Station Location Temp. Windchill Dew Point Humidity Wind Precip. Elev Updated Type